KBPT/BPT METAR and TAF weather

Enter ICAO airport designator
Station Type Date Time Source
KBPT METAR 2019/04/21 21:53 UTC NOAA

KBPT 212153Z 14012KT 10SM CLR 24/13 A3007 RMK AO2 SLP182 T02390133


Station Type Date Time Source
KBPT Decoded METAR 2019/04/21 21:53 UTC NOAA

SOUTHEAST TEXAS RGNL AIRPORT, TX, United States (KBPT) 29-95N 094-08W 5M
Apr 21, 2019 - 05:53 PM EDT / 2019.04.21 2153 UTC
Wind: from the SE (140 degrees) at 14 MPH (12 KT):0
Visibility: 10 mile(s):0
Sky conditions: clear
Temperature: 75.0 F (23.9 C)
Dew Point: 55.9 F (13.3 C)
Relative Humidity: 51%
Pressure (altimeter): 30.07 in. Hg (1018 hPa)
ob: KBPT 212153Z 14012KT 10SM CLR 24/13 A3007 RMK AO2 SLP182 T02390133
cycle: 22

Station Type Date Time Source
KBPT TAF 2019/04/21 18:22 UTC NOAA

TAF KBPT 211720Z 2118/2218 16012G20KT P6SM SKC
FM220100 16008KT P6SM SKC
FM220900 16007KT P6SM SCT015
FM221400 15012G18KT P6SM SCT040

Example: see airport list